createdAt,value
2017-06-23T00:02:06.890Z,99918.80
2017-06-23T00:04:35.296Z,99922.03
2017-06-23T00:07:03.722Z,99928.10
2017-06-23T00:09:32.141Z,99937.80
2017-06-23T00:12:00.571Z,99926.63
2017-06-23T00:14:29.684Z,99919.91
2017-06-23T00:16:58.112Z,99916.23
2017-06-23T00:19:26.534Z,99916.56
2017-06-23T00:21:55.522Z,99925.19
2017-06-23T00:24:24.332Z,99922.63
2017-06-23T00:26:52.739Z,99916.17
2017-06-23T00:29:21.172Z,99915.45
2017-06-23T00:31:49.984Z,99918.63
2017-06-23T00:34:18.414Z,99919.74
2017-06-23T00:36:46.828Z,99911.81
2017-06-23T00:39:15.324Z,99906.50
2017-06-23T00:41:43.739Z,99902.73
2017-06-23T00:44:12.396Z,99903.35
2017-06-23T00:46:40.807Z,99904.20
2017-06-23T00:49:09.226Z,99895.23
2017-06-23T00:51:37.672Z,99897.26
2017-06-23T00:54:06.088Z,99889.07
2017-06-23T00:56:34.506Z,99898.89
2017-06-23T00:59:02.915Z,99907.20
2017-06-23T01:01:31.352Z,99921.91
2017-06-23T01:03:59.764Z,99914.77
2017-06-23T01:06:28.299Z,99914.58
2017-06-23T01:08:57.099Z,99912.36
2017-06-23T01:11:25.902Z,99924.33
2017-06-23T01:13:54.335Z,99923.58
2017-06-23T01:16:22.739Z,99924.13
2017-06-23T01:18:51.569Z,99937.86
2017-06-23T01:21:19.998Z,99959.02
2017-06-23T01:23:48.424Z,99969.91
2017-06-23T01:26:16.830Z,100038.22
2017-06-23T01:28:45.256Z,99941.64
2017-06-23T01:31:13.669Z,99921.47
2017-06-23T01:33:42.232Z,99931.34
2017-06-23T01:36:10.637Z,99932.19
2017-06-23T01:38:39.048Z,99943.92
2017-06-23T01:41:07.470Z,99962.06
2017-06-23T01:43:36.268Z,99954.86
2017-06-23T01:46:04.696Z,99970.86
2017-06-23T01:48:33.116Z,100022.55
2017-06-23T01:51:01.953Z,100008.19
2017-06-23T01:53:30.368Z,99995.31
2017-06-23T01:55:59.183Z,99988.13
2017-06-23T01:58:27.668Z,99967.91
2017-06-23T02:00:56.080Z,99928.42
2017-06-23T02:03:24.496Z,99935.16
2017-06-23T02:05:53.008Z,99943.92
2017-06-23T02:08:21.427Z,99935.43
2017-06-23T02:10:49.840Z,99937.31
2017-06-23T02:13:18.280Z,99961.75
2017-06-23T02:15:46.683Z,99962.19
2017-06-23T02:18:15.117Z,99974.24
2017-06-23T02:20:43.615Z,99974.92
2017-06-23T02:23:12.306Z,99995.55
2017-06-23T02:25:40.717Z,100002.78
2017-06-23T02:28:09.122Z,100016.17
2017-06-23T02:30:37.953Z,100025.47
2017-06-23T02:33:06.372Z,100033.70
2017-06-23T02:35:34.798Z,100027.86
2017-06-23T02:38:03.211Z,100023.05
2017-06-23T02:40:31.644Z,100024.09
2017-06-23T02:43:00.448Z,100020.73
2017-06-23T02:45:29.141Z,100025.53
2017-06-23T02:47:57.552Z,100028.02
2017-06-23T02:50:25.967Z,100027.00
2017-06-23T02:52:54.393Z,100017.52
2017-06-23T02:55:22.816Z,100007.09
2017-06-23T02:57:51.337Z,99988.48
2017-06-23T03:00:19.820Z,99984.77
2017-06-23T03:02:48.410Z,99978.97
2017-06-23T03:05:16.880Z,99973.66
2017-06-23T03:07:45.767Z,99970.91
2017-06-23T03:10:14.584Z,99967.55
2017-06-23T03:12:43.004Z,99973.78
2017-06-23T03:15:11.424Z,99951.55
2017-06-23T03:17:40.219Z,99950.34
2017-06-23T03:20:08.649Z,99956.64
2017-06-23T03:22:37.054Z,99964.14
2017-06-23T03:25:05.660Z,99967.85
2017-06-23T03:27:34.066Z,99977.73
2017-06-23T03:30:02.491Z,99991.60
2017-06-23T03:32:30.936Z,100001.12
2017-06-23T03:34:59.352Z,100007.53
2017-06-23T03:37:27.791Z,99991.39
2017-06-23T03:39:56.201Z,99969.94
2017-06-23T03:42:25.446Z,99981.25
2017-06-23T03:44:53.918Z,99982.62
2017-06-23T03:47:22.758Z,99983.19
2017-06-23T03:49:51.184Z,99994.06
2017-06-23T03:52:19.982Z,99989.09
2017-06-23T03:54:48.812Z,99994.00
2017-06-23T03:57:17.233Z,99996.80
2017-06-23T03:59:45.930Z,99990.23
2017-06-23T04:02:14.736Z,99998.22
2017-06-23T04:04:43.151Z,100001.59
2017-06-23T04:07:11.579Z,100006.98
2017-06-23T04:09:40.392Z,100009.41
2017-06-23T04:12:08.819Z,100010.03
2017-06-23T04:14:37.224Z,100012.23
2017-06-23T04:17:06.059Z,100016.70
2017-06-23T04:19:34.469Z,100022.02
2017-06-23T04:22:02.979Z,100022.28
2017-06-23T04:24:31.792Z,100031.36
2017-06-23T04:27:00.370Z,100033.48
2017-06-23T04:29:29.254Z,100028.61
2017-06-23T04:31:58.146Z,100037.81
2017-06-23T04:34:26.967Z,100038.36
2017-06-23T04:36:55.421Z,100035.39
2017-06-23T04:39:24.250Z,100052.37
2017-06-23T04:41:52.651Z,100048.74
2017-06-23T04:44:21.085Z,100053.52
2017-06-23T04:46:49.836Z,100051.34
2017-06-23T04:49:18.274Z,100052.14
2017-06-23T04:54:45.634Z,100055.74
2017-06-23T04:57:14.024Z,100067.16
2017-06-23T04:59:42.422Z,100068.40
2017-06-23T05:02:10.828Z,100067.77
2017-06-23T05:04:39.228Z,100067.05
2017-06-23T05:07:07.633Z,100064.23
2017-06-23T05:09:36.043Z,100068.76
2017-06-23T05:12:04.457Z,100072.00
2017-06-23T05:14:32.848Z,100066.86
2017-06-23T05:17:01.758Z,100063.81
2017-06-23T05:19:30.633Z,100062.34
2017-06-23T05:21:59.024Z,100066.01
2017-06-23T05:24:27.829Z,100072.73
2017-06-23T05:26:56.501Z,100067.35
2017-06-23T05:29:25.297Z,100075.84
2017-06-23T05:31:54.179Z,100085.62
2017-06-23T05:34:22.985Z,100069.42
2017-06-23T05:36:51.451Z,100084.63
2017-06-23T05:39:20.432Z,100081.68
2017-06-23T05:41:48.835Z,100077.58
2017-06-23T05:44:18.038Z,100093.65
2017-06-23T05:46:46.441Z,100087.09
2017-06-23T05:49:14.841Z,100096.86
2017-06-23T05:51:43.244Z,100083.12
2017-06-23T05:54:12.056Z,100102.79
2017-06-23T05:56:41.501Z,100103.52
2017-06-23T05:59:09.896Z,100106.81
2017-06-23T06:01:38.311Z,100109.38
2017-06-23T06:04:07.105Z,100125.78
2017-06-23T06:06:36.135Z,100125.98
2017-06-23T06:09:04.575Z,100132.70
2017-06-23T06:11:33.559Z,100133.17
2017-06-23T06:14:02.481Z,100130.48
2017-06-23T06:16:30.882Z,100143.78
2017-06-23T06:18:59.289Z,100145.66
2017-06-23T06:21:27.887Z,100146.11
2017-06-23T06:23:56.306Z,100145.84
2017-06-23T06:26:24.709Z,100146.38
2017-06-23T06:28:53.259Z,100164.52
2017-06-23T06:31:22.062Z,100162.52
2017-06-23T06:33:50.449Z,100166.85
2017-06-23T06:36:18.947Z,100170.17
2017-06-23T06:38:47.354Z,100175.06
2017-06-23T06:41:15.770Z,100178.67
2017-06-23T06:43:44.555Z,100175.13
2017-06-23T06:46:13.835Z,100174.00
2017-06-23T06:48:42.277Z,100173.67
2017-06-23T06:51:11.250Z,100180.96
2017-06-23T06:53:39.930Z,100183.81
2017-06-23T06:56:08.896Z,100194.84
2017-06-23T06:58:37.948Z,100201.09
2017-06-23T07:01:06.347Z,100203.48
2017-06-23T07:03:34.866Z,100207.13
2017-06-23T07:06:03.845Z,100206.86
2017-06-23T07:08:33.150Z,100210.07
2017-06-23T07:11:01.864Z,100215.16
2017-06-23T07:13:30.437Z,100214.06
2017-06-23T07:15:59.544Z,100223.00
2017-06-23T07:18:28.343Z,100219.98
2017-06-23T07:20:57.018Z,100217.97
2017-06-23T07:23:25.812Z,100230.41
2017-06-23T07:25:54.894Z,100238.76
2017-06-23T07:28:23.681Z,100234.77
2017-06-23T07:30:52.901Z,100237.41
2017-06-23T07:33:22.124Z,100255.08
2017-06-23T07:35:50.512Z,100246.64
2017-06-23T07:38:19.269Z,100257.66
2017-06-23T07:40:47.743Z,100262.09
2017-06-23T07:43:16.553Z,100266.98
2017-06-23T07:45:44.957Z,100265.33
2017-06-23T07:48:13.360Z,100268.52
2017-06-23T07:50:41.752Z,100266.93
2017-06-23T07:53:11.103Z,100271.45
2017-06-23T07:55:39.507Z,100284.94
2017-06-23T07:58:08.002Z,100278.80
2017-06-23T08:00:36.418Z,100278.55
2017-06-23T08:03:05.204Z,100291.82
2017-06-23T08:05:34.882Z,100275.83
2017-06-23T08:08:03.327Z,100284.47
2017-06-23T08:10:31.974Z,100272.25
2017-06-23T08:13:00.760Z,100274.99
2017-06-23T08:15:29.866Z,100271.63
2017-06-23T08:17:58.682Z,100280.11
2017-06-23T08:20:27.207Z,100274.37
2017-06-23T08:22:55.621Z,100277.53
2017-06-23T08:25:24.022Z,100278.77
2017-06-23T08:27:52.618Z,100272.91
2017-06-23T08:30:21.009Z,100288.55
2017-06-23T08:32:50.457Z,100270.46
2017-06-23T08:35:19.267Z,100286.14
2017-06-23T08:37:48.786Z,100275.38
2017-06-23T08:40:17.533Z,100282.79
2017-06-23T08:42:46.613Z,100285.00
2017-06-23T08:45:15.922Z,100285.73
2017-06-23T08:47:44.339Z,100291.58
2017-06-23T08:50:12.724Z,100293.72
2017-06-23T08:52:41.139Z,100291.44
2017-06-23T08:55:09.519Z,100287.67
2017-06-23T08:57:38.349Z,100286.70
2017-06-23T09:00:06.735Z,100292.64
2017-06-23T09:02:35.526Z,100297.30
2017-06-23T09:05:04.625Z,100293.45
2017-06-23T09:07:33.422Z,100305.44
2017-06-23T09:10:01.821Z,100309.61
2017-06-23T09:12:30.218Z,100316.09
2017-06-23T09:14:58.966Z,100309.76
2017-06-23T09:17:27.744Z,100311.91
2017-06-23T09:19:56.541Z,100313.53
2017-06-23T09:22:25.325Z,100305.91
2017-06-23T09:24:55.229Z,100313.94
2017-06-23T09:27:24.341Z,100303.47
2017-06-23T09:29:53.126Z,100309.84
2017-06-23T09:32:22.230Z,100314.03
2017-06-23T09:34:51.042Z,100311.08
2017-06-23T09:37:19.450Z,100310.45
2017-06-23T09:39:48.081Z,100320.59
2017-06-23T09:42:16.886Z,100312.80
2017-06-23T09:44:45.430Z,100322.45
2017-06-23T09:47:14.642Z,100306.27
2017-06-23T09:49:43.041Z,100313.84
2017-06-23T09:52:11.431Z,100311.34
2017-06-23T09:54:39.828Z,100309.38
2017-06-23T09:57:09.401Z,100300.22
2017-06-23T09:59:37.872Z,100309.31
2017-06-23T10:02:06.778Z,100311.94
2017-06-23T10:04:36.574Z,100312.31
2017-06-23T10:07:04.970Z,100312.52
2017-06-23T10:09:33.739Z,100313.73
2017-06-23T10:12:02.139Z,100318.41
2017-06-23T10:14:30.920Z,100321.55
2017-06-23T10:16:59.721Z,100312.80
2017-06-23T10:19:28.496Z,100319.00
2017-06-23T10:21:57.700Z,100321.13
2017-06-23T10:24:27.175Z,100326.08
2017-06-23T10:26:55.569Z,100326.27
2017-06-23T10:29:23.974Z,100336.98
2017-06-23T10:31:52.369Z,100339.59
2017-06-23T10:34:20.773Z,100345.82
2017-06-23T10:36:49.157Z,100345.83
2017-06-23T10:39:17.570Z,100353.69
2017-06-23T10:41:45.963Z,100359.33
2017-06-23T10:44:15.273Z,100349.52
2017-06-23T10:46:44.051Z,100353.25
2017-06-23T10:49:12.838Z,100347.77
2017-06-23T10:51:41.632Z,100342.70
2017-06-23T10:54:10.526Z,100348.41
2017-06-23T10:56:39.330Z,100357.47
2017-06-23T10:59:08.011Z,100358.83
2017-06-23T11:01:37.190Z,100362.02
2017-06-23T11:04:06.596Z,100354.17
2017-06-23T11:06:35.394Z,100359.72
2017-06-23T11:09:04.215Z,100362.34
2017-06-23T11:11:32.601Z,100364.55
2017-06-23T11:14:00.996Z,100365.89
2017-06-23T11:16:29.733Z,100374.56
2017-06-23T11:18:58.143Z,100373.43
2017-06-23T11:21:26.536Z,100370.86
2017-06-23T11:23:54.945Z,100372.50
2017-06-23T11:26:24.183Z,100367.23
2017-06-23T11:28:52.596Z,100369.29
2017-06-23T11:31:21.010Z,100373.67
2017-06-23T11:33:49.449Z,100375.92
2017-06-23T11:36:18.157Z,100372.91
2017-06-23T11:38:46.559Z,100378.84
2017-06-23T11:41:14.945Z,100376.30
2017-06-23T11:43:43.357Z,100384.61
2017-06-23T11:46:11.750Z,100380.95
2017-06-23T11:48:40.168Z,100384.31
2017-06-23T11:51:08.565Z,100381.50
2017-06-23T11:53:37.165Z,100395.95
2017-06-23T11:56:05.940Z,100392.69
2017-06-23T11:58:34.338Z,100396.77
2017-06-23T12:01:03.520Z,100397.15
2017-06-23T12:03:31.908Z,100388.66
2017-06-23T12:06:00.709Z,100403.06
2017-06-23T12:08:29.494Z,100397.27
2017-06-23T12:10:58.473Z,100403.11
2017-06-23T12:13:27.261Z,100401.06
2017-06-23T12:15:55.968Z,100405.52
2017-06-23T12:18:24.389Z,100414.66
2017-06-23T12:20:52.781Z,100411.94
2017-06-23T12:23:22.067Z,100416.21
2017-06-23T12:25:51.489Z,100420.92
2017-06-23T12:28:19.872Z,100418.36
2017-06-23T12:30:48.322Z,100427.98
2017-06-23T12:33:16.705Z,100426.91
2017-06-23T12:35:45.547Z,100422.86
2017-06-23T12:38:14.329Z,100428.70
2017-06-23T12:40:42.760Z,100424.91
2017-06-23T12:43:11.160Z,100436.32
2017-06-23T12:45:39.541Z,100433.72
2017-06-23T12:48:07.944Z,100433.37
2017-06-23T12:50:36.334Z,100432.55
2017-06-23T12:53:04.962Z,100437.48
2017-06-23T12:55:33.361Z,100442.73
2017-06-23T12:58:01.754Z,100440.41
2017-06-23T13:00:30.155Z,100448.34
2017-06-23T13:02:58.554Z,100451.92
2017-06-23T13:05:27.033Z,100444.66
2017-06-23T13:07:55.817Z,100452.88
2017-06-23T13:10:24.807Z,100463.23
2017-06-23T13:12:53.596Z,100444.19
2017-06-23T13:15:22.602Z,100456.48
2017-06-23T13:17:51.423Z,100452.61
2017-06-23T13:20:20.112Z,100457.87
2017-06-23T13:22:48.503Z,100450.90
2017-06-23T13:25:16.884Z,100462.80
2017-06-23T13:27:46.800Z,100461.42
2017-06-23T13:30:15.199Z,100463.36
2017-06-23T13:32:43.625Z,100457.85
2017-06-23T13:35:12.011Z,100464.76
2017-06-23T13:37:40.917Z,100477.33
2017-06-23T13:40:09.307Z,100479.70
2017-06-23T13:42:37.838Z,100490.40
2017-06-23T13:45:07.556Z,100468.06
2017-06-23T13:47:36.342Z,100474.09
2017-06-23T13:50:04.745Z,100480.56
2017-06-23T13:52:33.202Z,100486.39
2017-06-23T13:55:02.009Z,100474.55
2017-06-23T13:57:30.388Z,100485.11
2017-06-23T13:59:59.656Z,100492.09
2017-06-23T14:02:28.031Z,100493.50
2017-06-23T14:04:56.412Z,100500.88
2017-06-23T14:07:24.824Z,100497.95
2017-06-23T14:09:53.212Z,100511.50
2017-06-23T14:12:23.035Z,100509.23
2017-06-23T14:14:51.425Z,100517.23
2017-06-23T14:17:19.833Z,100513.39
2017-06-23T14:19:48.219Z,100513.43
2017-06-23T14:22:17.020Z,100521.69
2017-06-23T14:24:45.521Z,100526.12
2017-06-23T14:27:14.300Z,100524.69
2017-06-23T14:29:42.700Z,100537.28
2017-06-23T14:32:11.080Z,100537.45
2017-06-23T14:34:39.481Z,100541.77
2017-06-23T14:37:07.878Z,100545.61
2017-06-23T14:39:36.410Z,100531.39
2017-06-23T14:42:04.806Z,100528.50
2017-06-23T14:44:33.184Z,100534.02
2017-06-23T14:47:01.581Z,100517.66
2017-06-23T14:49:30.182Z,100519.97
2017-06-23T14:51:58.575Z,100518.28
2017-06-23T14:54:26.966Z,100513.07
2017-06-23T14:56:55.571Z,100510.02
2017-06-23T14:59:24.353Z,100513.77
2017-06-23T15:01:52.785Z,100512.32
2017-06-23T15:04:21.181Z,100512.57
2017-06-23T15:06:49.918Z,100515.29
2017-06-23T15:09:18.712Z,100514.09
2017-06-23T15:11:47.500Z,100511.48
2017-06-23T15:14:15.898Z,100506.78
2017-06-23T15:16:44.294Z,100508.72
2017-06-23T15:19:12.942Z,100503.41
2017-06-23T15:21:41.730Z,100503.67
2017-06-23T15:24:10.519Z,100504.66
2017-06-23T15:26:39.332Z,100503.62
2017-06-23T15:29:07.712Z,100498.22
2017-06-23T15:31:36.117Z,100502.72
2017-06-23T15:34:04.500Z,100494.64
2017-06-23T15:36:34.313Z,100492.60
2017-06-23T15:39:02.719Z,100496.23
2017-06-23T15:41:31.222Z,100490.12
2017-06-23T15:44:00.026Z,100495.03
2017-06-23T15:46:28.417Z,100497.70
2017-06-23T15:48:57.184Z,100497.58
2017-06-23T15:51:26.065Z,100499.20
2017-06-23T15:53:55.053Z,100492.77
2017-06-23T15:56:23.442Z,100492.28
2017-06-23T15:58:53.642Z,100498.18
2017-06-23T16:01:22.036Z,100497.66
2017-06-23T16:03:50.432Z,100497.77
2017-06-23T16:06:20.450Z,100490.97
2017-06-23T16:08:49.241Z,100500.48
2017-06-23T16:11:18.036Z,100505.94
2017-06-23T16:13:46.492Z,100508.16
2017-06-23T16:16:15.077Z,100508.40
2017-06-23T16:18:43.456Z,100498.72
2017-06-23T16:21:11.858Z,100514.31
2017-06-23T16:23:40.653Z,100514.27
2017-06-23T16:26:09.546Z,100512.94
2017-06-23T16:28:38.225Z,100515.55
2017-06-23T16:31:07.014Z,100515.05
2017-06-23T16:33:36.585Z,100522.70
2017-06-23T16:36:05.622Z,100528.50
2017-06-23T16:38:34.841Z,100522.20
2017-06-23T16:41:03.442Z,100524.40
2017-06-23T16:43:33.205Z,100527.94
2017-06-23T16:46:03.363Z,100533.47
2017-06-23T16:48:32.561Z,100539.86
2017-06-23T16:51:01.417Z,100543.08
2017-06-23T16:53:29.796Z,100540.48
2017-06-23T16:55:58.601Z,100538.36
2017-06-23T16:58:27.890Z,100547.66
2017-06-23T17:00:56.321Z,100541.30
2017-06-23T17:03:24.785Z,100540.79
2017-06-23T17:05:53.184Z,100545.08
2017-06-23T17:08:21.578Z,100549.45
2017-06-23T17:10:50.438Z,100551.45
2017-06-23T17:13:18.817Z,100557.47
2017-06-23T17:15:47.209Z,100554.89
2017-06-23T17:18:15.617Z,100565.38
2017-06-23T17:20:45.970Z,100567.30
2017-06-23T17:23:14.771Z,100564.09
2017-06-23T17:25:43.175Z,100571.09
2017-06-23T17:28:11.653Z,100572.69
2017-06-23T17:30:40.046Z,100570.23
2017-06-23T17:33:08.692Z,100567.88
2017-06-23T17:35:37.201Z,100576.09
2017-06-23T17:38:05.611Z,100571.17
2017-06-23T17:40:34.022Z,100567.68
2017-06-23T17:43:02.814Z,100566.55
2017-06-23T17:45:31.636Z,100578.54
2017-06-23T17:48:00.998Z,100571.29
2017-06-23T17:50:30.243Z,100573.23
2017-06-23T17:52:59.561Z,100565.16
2017-06-23T17:55:28.574Z,100570.01
2017-06-23T17:57:56.979Z,100573.15
2017-06-23T18:00:25.769Z,100565.74
2017-06-23T18:02:54.560Z,100569.35
2017-06-23T18:05:23.344Z,100566.87
2017-06-23T18:07:52.352Z,100568.65
2017-06-23T18:10:21.145Z,100569.08
2017-06-23T18:12:49.934Z,100567.68
2017-06-23T18:15:18.342Z,100565.94
2017-06-23T18:17:46.993Z,100571.09
2017-06-23T18:20:15.784Z,100566.55
2017-06-23T18:22:45.778Z,100566.87
2017-06-23T18:25:14.395Z,100562.87
2017-06-23T18:27:42.802Z,100575.92
2017-06-23T18:30:11.556Z,100571.27
2017-06-23T18:32:40.387Z,100570.21
2017-06-23T18:35:08.776Z,100578.06
2017-06-23T18:37:37.406Z,100581.51
2017-06-23T18:40:06.202Z,100583.45
2017-06-23T18:42:34.980Z,100576.80
2017-06-23T18:45:03.783Z,100588.95
2017-06-23T18:47:32.556Z,100592.41
2017-06-23T18:50:01.349Z,100588.41
2017-06-23T18:52:29.728Z,100576.02
2017-06-23T18:54:58.525Z,100580.59
2017-06-23T18:57:27.318Z,100586.25
2017-06-23T18:59:56.330Z,100586.22
2017-06-23T19:02:24.758Z,100587.30
2017-06-23T19:04:53.197Z,100586.04
2017-06-23T19:07:21.644Z,100586.02
2017-06-23T19:09:50.630Z,100590.36
2017-06-23T19:12:19.328Z,100595.36
2017-06-23T19:14:48.104Z,100595.98
2017-06-23T19:17:16.637Z,100598.13
2017-06-23T19:19:45.074Z,100599.53
2017-06-23T19:22:13.856Z,100603.38
2017-06-23T19:24:42.267Z,100600.16
2017-06-23T19:27:12.084Z,100612.63
2017-06-23T19:29:40.961Z,100609.06
2017-06-23T19:32:09.837Z,100614.55
2017-06-23T19:34:38.871Z,100620.33
2017-06-23T19:37:07.286Z,100620.66
2017-06-23T19:39:35.683Z,100620.58
2017-06-23T19:42:04.112Z,100618.94
2017-06-23T19:44:32.514Z,100622.36
2017-06-23T19:47:01.147Z,100613.67
2017-06-23T19:49:29.931Z,100625.22
2017-06-23T19:51:58.712Z,100619.39
2017-06-23T19:54:27.117Z,100617.32
2017-06-23T19:56:56.312Z,100619.42
2017-06-23T19:59:25.135Z,100627.33
2017-06-23T20:01:54.093Z,100623.13
2017-06-23T20:04:22.509Z,100610.59
2017-06-23T20:06:51.773Z,100620.45
2017-06-23T20:09:20.648Z,100619.45
2017-06-23T20:11:49.041Z,100623.27
2017-06-23T20:14:18.022Z,100616.28
2017-06-23T20:16:47.146Z,100612.02
2017-06-23T20:19:15.529Z,100614.18
2017-06-23T20:21:43.944Z,100613.08
2017-06-23T20:24:12.349Z,100608.59
2017-06-23T20:26:40.758Z,100616.28
2017-06-23T20:29:09.145Z,100616.21
2017-06-23T20:31:37.555Z,100612.55
2017-06-23T20:34:05.940Z,100611.47
2017-06-23T20:36:34.349Z,100613.54
2017-06-23T20:39:02.736Z,100606.56
2017-06-23T20:41:31.328Z,100609.13
2017-06-23T20:44:00.118Z,100605.16
2017-06-23T20:46:29.478Z,100602.31
2017-06-23T20:48:57.888Z,100598.00
2017-06-23T20:51:27.214Z,100599.70
2017-06-23T20:53:55.624Z,100600.77
2017-06-23T20:56:24.030Z,100606.33
2017-06-23T20:58:52.875Z,100607.84
2017-06-23T21:01:21.282Z,100604.36
2017-06-23T21:03:49.677Z,100603.14
2017-06-23T21:06:18.724Z,100608.06
2017-06-23T21:08:47.514Z,100606.20
2017-06-23T21:11:16.318Z,100600.94
2017-06-23T21:13:44.726Z,100601.79
2017-06-23T21:16:13.155Z,100607.80
2017-06-23T21:18:41.983Z,100602.53
2017-06-23T21:21:10.380Z,100608.86
2017-06-23T21:23:38.765Z,100606.86
2017-06-23T21:26:07.580Z,100607.58
2017-06-23T21:28:35.978Z,100614.13
2017-06-23T21:31:04.764Z,100610.61
2017-06-23T21:33:33.552Z,100616.09
2017-06-23T21:36:02.355Z,100617.52
2017-06-23T21:38:30.778Z,100614.46
2017-06-23T21:41:16.669Z,100617.88
2017-06-23T21:43:45.776Z,100619.38
2017-06-23T21:46:14.184Z,100622.94
2017-06-23T21:48:43.274Z,100620.09
2017-06-23T21:51:11.672Z,100605.42
2017-06-23T21:53:40.073Z,100610.05
2017-06-23T21:56:09.494Z,100612.33
2017-06-23T21:58:38.334Z,100615.53
2017-06-23T22:01:07.136Z,100616.87
2017-06-23T22:03:35.934Z,100608.22
2017-06-23T22:06:04.329Z,100620.39
2017-06-23T22:08:32.727Z,100619.96
2017-06-23T22:11:01.363Z,100623.59
2017-06-23T22:13:30.140Z,100609.72
2017-06-23T22:15:58.576Z,100606.66
2017-06-23T22:18:26.989Z,100617.54
2017-06-23T22:20:55.368Z,100615.27
2017-06-23T22:23:23.778Z,100606.66
2017-06-23T22:25:53.451Z,100612.84
2017-06-23T22:28:21.857Z,100616.33
2017-06-23T22:30:50.663Z,100614.77
2017-06-23T22:33:19.571Z,100625.58
2017-06-23T22:35:48.870Z,100618.25
2017-06-23T22:38:18.210Z,100621.74
2017-06-23T22:40:48.049Z,100630.77
2017-06-23T22:43:16.458Z,100630.16
2017-06-23T22:45:45.136Z,100625.27
2017-06-23T22:48:14.628Z,100629.53
2017-06-23T22:50:43.040Z,100633.83
2017-06-23T22:53:11.442Z,100637.64
2017-06-23T22:55:40.125Z,100642.57
2017-06-23T22:58:08.557Z,100645.34
2017-06-23T23:00:36.955Z,100652.30
2017-06-23T23:03:05.368Z,100646.18
2017-06-23T23:05:33.801Z,100640.52
2017-06-23T23:08:02.596Z,100639.64
2017-06-23T23:10:31.525Z,100640.22
2017-06-23T23:13:00.181Z,100642.79
2017-06-23T23:15:28.957Z,100643.35
2017-06-23T23:17:57.792Z,100646.27
2017-06-23T23:20:26.228Z,100644.31
2017-06-23T23:22:54.628Z,100646.31
2017-06-23T23:25:23.020Z,100652.94
2017-06-23T23:27:51.415Z,100649.01
2017-06-23T23:30:19.796Z,100633.37
2017-06-23T23:32:48.181Z,100629.03
2017-06-23T23:35:16.577Z,100629.17
2017-06-23T23:37:44.965Z,100633.63
2017-06-23T23:40:14.128Z,100632.20
2017-06-23T23:42:42.544Z,100627.10
2017-06-23T23:45:11.148Z,100626.19
2017-06-23T23:47:39.548Z,100630.73
2017-06-23T23:50:08.321Z,100626.03
2017-06-23T23:52:37.108Z,100631.07
2017-06-23T23:55:05.943Z,100623.17
2017-06-23T23:57:34.340Z,100617.97
